createdAt,value
2022-09-17T00:01:35.145Z,12.32
2022-09-17T00:04:23.739Z,8.43
2022-09-17T00:07:12.058Z,10.00
2022-09-17T00:10:02.151Z,9.00
2022-09-17T00:12:50.696Z,11.52
2022-09-17T00:15:43.699Z,8.63
2022-09-17T00:18:32.628Z,8.90
2022-09-17T00:21:22.911Z,9.63
2022-09-17T00:24:14.428Z,8.18
2022-09-17T00:27:04.400Z,8.57
2022-09-17T00:29:52.873Z,5.97
2022-09-17T00:32:41.620Z,8.48
2022-09-17T00:35:32.943Z,9.02
2022-09-17T00:38:21.592Z,8.60
2022-09-17T00:41:10.743Z,5.13
2022-09-17T00:44:02.595Z,7.03
2022-09-17T00:46:51.997Z,5.93
2022-09-17T00:49:41.669Z,5.13
2022-09-17T00:52:34.910Z,7.40
2022-09-17T00:55:27.447Z,7.47
2022-09-17T00:58:18.870Z,4.55
2022-09-17T01:01:08.671Z,4.68
2022-09-17T01:03:57.197Z,5.50
2022-09-17T01:06:53.750Z,6.10
2022-09-17T01:09:50.483Z,4.97
2022-09-17T01:12:53.777Z,6.75
2022-09-17T01:15:49.599Z,5.20
2022-09-17T01:19:01.187Z,5.60
2022-09-17T01:21:59.164Z,3.28
2022-09-17T01:24:53.039Z,5.78
2022-09-17T01:28:02.663Z,4.40
2022-09-17T01:31:07.172Z,5.32
2022-09-17T01:34:03.030Z,5.60
2022-09-17T01:37:01.622Z,4.35
2022-09-17T01:39:56.777Z,4.50
2022-09-17T01:42:55.933Z,3.95
2022-09-17T01:45:48.883Z,4.80
2022-09-17T01:48:44.195Z,4.90
2022-09-17T01:51:39.840Z,4.72
2022-09-17T01:54:32.764Z,6.22
2022-09-17T01:57:28.997Z,5.50
2022-09-17T02:00:19.088Z,6.13
2022-09-17T02:03:12.347Z,6.68
2022-09-17T02:06:07.058Z,4.22
2022-09-17T02:08:59.305Z,5.40
2022-09-17T02:11:53.058Z,3.67
2022-09-17T02:14:48.167Z,4.45
2022-09-17T02:17:41.729Z,6.35
2022-09-17T02:23:30.513Z,2.25
2022-09-17T02:26:22.461Z,3.30
2022-09-17T02:29:16.420Z,4.32
2022-09-17T02:34:53.950Z,2.97
2022-09-17T02:37:43.202Z,4.03
2022-09-17T02:40:39.943Z,6.03
2022-09-17T02:43:35.153Z,3.13
2022-09-17T02:46:42.186Z,3.92
2022-09-17T02:49:44.108Z,4.18
2022-09-17T02:52:45.654Z,3.80
2022-09-17T02:55:42.817Z,2.85
2022-09-17T02:58:40.375Z,2.45
2022-09-17T03:01:35.424Z,2.80
2022-09-17T03:04:25.590Z,3.53
2022-09-17T03:07:15.146Z,3.33
2022-09-17T03:10:03.409Z,3.55
2022-09-17T03:12:55.530Z,2.90
2022-09-17T03:15:44.842Z,2.65
2022-09-17T03:18:34.270Z,2.92
2022-09-17T03:21:22.719Z,2.28
2022-09-17T03:24:12.288Z,2.88
2022-09-17T03:27:00.644Z,4.07
2022-09-17T03:29:50.730Z,2.95
2022-09-17T03:32:39.276Z,6.03
2022-09-17T03:35:27.110Z,3.75
2022-09-17T03:38:16.070Z,2.85
2022-09-17T03:41:07.820Z,4.13
2022-09-17T03:43:56.682Z,4.30
2022-09-17T03:46:47.021Z,3.03
2022-09-17T03:49:35.523Z,3.30
2022-09-17T03:52:24.154Z,6.53
2022-09-17T03:55:13.534Z,2.97
2022-09-17T03:58:01.907Z,4.45
2022-09-17T04:00:53.807Z,7.90
2022-09-17T04:03:43.496Z,3.55
2022-09-17T04:06:31.956Z,3.85
2022-09-17T04:09:20.600Z,3.25
2022-09-17T04:12:08.940Z,4.22
2022-09-17T04:14:57.489Z,5.53
2022-09-17T04:17:45.756Z,6.55
2022-09-17T04:20:40.536Z,4.78
2022-09-17T04:23:28.989Z,3.30
2022-09-17T04:26:17.222Z,3.35
2022-09-17T04:29:05.388Z,4.07
2022-09-17T04:31:57.599Z,4.68
2022-09-17T04:34:51.681Z,3.70
2022-09-17T04:37:42.179Z,4.63
2022-09-17T04:40:31.511Z,5.75
2022-09-17T04:43:19.821Z,4.10
2022-09-17T04:46:08.661Z,4.75
2022-09-17T04:48:58.169Z,3.35
2022-09-17T04:51:46.273Z,6.15
2022-09-17T04:54:36.063Z,7.15
2022-09-17T04:57:26.146Z,3.60
2022-09-17T05:00:20.431Z,5.30
2022-09-17T05:03:11.127Z,5.63
2022-09-17T05:05:59.276Z,5.03
2022-09-17T05:08:47.318Z,4.53
2022-09-17T05:11:42.110Z,8.00
2022-09-17T05:14:35.525Z,5.60
2022-09-17T05:17:25.258Z,10.20
2022-09-17T05:20:14.426Z,9.30
2022-09-17T05:23:02.778Z,4.88
2022-09-17T05:25:51.425Z,4.45
2022-09-17T05:28:41.111Z,6.70
2022-09-17T05:31:29.388Z,6.05
2022-09-17T05:34:17.280Z,3.72
2022-09-17T05:37:06.451Z,3.33
2022-09-17T05:39:55.268Z,6.32
2022-09-17T05:42:45.500Z,3.67
2022-09-17T05:45:37.839Z,5.78
2022-09-17T05:48:28.660Z,10.30
2022-09-17T05:51:20.783Z,7.35
2022-09-17T05:54:09.224Z,6.75
2022-09-17T05:56:58.196Z,9.57
2022-09-17T05:59:48.481Z,9.30
2022-09-17T06:02:39.731Z,7.82
2022-09-17T06:05:28.357Z,4.18
2022-09-17T06:08:16.813Z,4.38
2022-09-17T06:11:06.859Z,7.32
2022-09-17T06:13:55.671Z,3.78
2022-09-17T06:16:44.316Z,5.43
2022-09-17T06:19:34.180Z,6.35
2022-09-17T06:22:24.073Z,5.95
2022-09-17T06:25:12.307Z,4.32
2022-09-17T06:28:00.350Z,9.85
2022-09-17T06:30:49.107Z,4.82
2022-09-17T06:33:41.137Z,7.53
2022-09-17T06:36:31.123Z,9.95
2022-09-17T06:39:19.380Z,8.85
2022-09-17T06:42:08.234Z,5.40
2022-09-17T06:44:59.771Z,4.70
2022-09-17T06:47:49.439Z,6.40
2022-09-17T06:50:42.539Z,5.93
2022-09-17T06:53:33.704Z,7.57
2022-09-17T06:56:21.853Z,7.03
2022-09-17T06:59:10.491Z,6.35
2022-09-17T07:01:58.793Z,5.68
2022-09-17T07:04:46.893Z,5.32
2022-09-17T07:07:36.574Z,5.10
2022-09-17T07:10:28.495Z,4.15
2022-09-17T07:13:17.655Z,8.07
2022-09-17T07:16:06.691Z,10.73
2022-09-17T07:18:55.268Z,6.30
2022-09-17T07:21:44.439Z,5.00
2022-09-17T07:24:33.227Z,9.25
2022-09-17T07:27:22.667Z,8.38
2022-09-17T07:30:13.467Z,7.38
2022-09-17T07:33:04.186Z,5.43
2022-09-17T07:35:57.538Z,9.45
2022-09-17T07:38:46.180Z,7.15
2022-09-17T07:41:34.860Z,6.40
2022-09-17T07:44:24.424Z,5.13
2022-09-17T07:47:12.561Z,5.20
2022-09-17T07:50:01.131Z,4.15
2022-09-17T07:52:50.386Z,4.72
2022-09-17T07:55:39.563Z,6.10
2022-09-17T07:58:34.353Z,7.25
2022-09-17T08:01:25.212Z,7.35
2022-09-17T08:04:13.812Z,4.82
2022-09-17T08:07:05.226Z,4.75
2022-09-17T08:09:53.485Z,7.88
2022-09-17T08:12:42.025Z,4.72
2022-09-17T08:15:30.878Z,3.90
2022-09-17T08:18:21.287Z,9.18
2022-09-17T08:21:12.597Z,6.68
2022-09-17T08:24:01.657Z,6.05
2022-09-17T08:26:50.620Z,7.40
2022-09-17T08:29:39.381Z,4.38
2022-09-17T08:32:27.928Z,7.38
2022-09-17T08:35:18.629Z,5.10
2022-09-17T08:38:08.009Z,4.38
2022-09-17T08:41:10.169Z,6.97
2022-09-17T08:44:11.933Z,5.87
2022-09-17T08:47:06.528Z,4.30
2022-09-17T08:49:57.544Z,8.10
2022-09-17T08:53:02.882Z,4.40
2022-09-17T08:55:59.743Z,10.40
2022-09-17T08:59:05.582Z,7.05
2022-09-17T09:02:04.530Z,9.30
2022-09-17T09:05:03.376Z,4.53
2022-09-17T09:07:58.278Z,10.70
2022-09-17T09:10:52.978Z,7.78
2022-09-17T09:13:45.007Z,6.47
2022-09-17T09:16:36.165Z,6.95
2022-09-17T09:19:27.660Z,5.70
2022-09-17T09:22:31.469Z,5.63
2022-09-17T09:25:25.318Z,8.13
2022-09-17T09:31:28.422Z,4.38
2022-09-17T09:34:18.320Z,7.97
2022-09-17T09:37:18.034Z,4.93
2022-09-17T09:40:20.260Z,6.80
2022-09-17T09:43:20.026Z,7.68
2022-09-17T09:46:24.584Z,5.50
2022-09-17T09:49:26.426Z,5.78
2022-09-17T09:52:33.302Z,8.23
2022-09-17T09:55:38.538Z,6.00
2022-09-17T09:58:36.815Z,4.82
2022-09-17T10:01:29.397Z,4.35
2022-09-17T10:04:21.497Z,8.77
2022-09-17T10:07:13.015Z,9.52
2022-09-17T10:10:12.019Z,7.95
2022-09-17T10:13:09.797Z,6.35
2022-09-17T10:16:17.746Z,6.15
2022-09-17T10:19:17.422Z,6.78
2022-09-17T10:22:22.551Z,8.60
2022-09-17T10:25:30.140Z,13.88
2022-09-17T10:28:34.770Z,8.20
2022-09-17T10:31:25.341Z,6.20
2022-09-17T10:34:36.765Z,5.80
2022-09-17T10:37:38.211Z,8.32
2022-09-17T10:40:33.138Z,6.32
2022-09-17T10:43:25.252Z,6.47
2022-09-17T10:46:18.144Z,9.18
2022-09-17T10:49:15.272Z,8.05
2022-09-17T10:52:15.594Z,7.22
2022-09-17T10:55:19.822Z,5.13
2022-09-17T10:58:22.998Z,5.80
2022-09-17T11:01:26.173Z,7.07
2022-09-17T11:04:27.870Z,5.10
2022-09-17T11:07:31.564Z,8.23
2022-09-17T11:16:23.136Z,7.88
2022-09-17T11:19:25.912Z,5.30
2022-09-17T11:22:25.113Z,4.57
2022-09-17T11:25:29.231Z,2.90
2022-09-17T11:28:37.854Z,3.20
2022-09-17T11:31:37.191Z,4.32
2022-09-17T11:34:33.694Z,3.75
2022-09-17T11:37:29.316Z,4.97
2022-09-17T11:40:24.653Z,4.50
2022-09-17T11:43:24.852Z,4.18
2022-09-17T11:46:20.424Z,3.20
2022-09-17T11:49:15.676Z,4.78
2022-09-17T11:52:11.908Z,2.80
2022-09-17T11:55:04.037Z,3.75
2022-09-17T11:57:56.694Z,1.63
2022-09-17T12:00:52.033Z,3.45
2022-09-17T12:03:48.417Z,2.90
2022-09-17T12:06:44.985Z,4.07
2022-09-17T12:09:41.210Z,3.83
2022-09-17T12:12:50.119Z,3.47
2022-09-17T12:15:42.280Z,13.13
2022-09-17T12:18:44.242Z,5.13
2022-09-17T12:21:39.962Z,3.78
2022-09-17T12:24:30.452Z,4.28
2022-09-17T12:27:30.785Z,4.05
2022-09-17T12:30:26.201Z,4.93
2022-09-17T12:33:24.901Z,2.63
2022-09-17T12:36:28.383Z,4.82
2022-09-17T12:39:38.346Z,3.27
2022-09-17T12:42:26.076Z,6.18
2022-09-17T12:45:36.947Z,5.05
2022-09-17T12:48:46.806Z,5.18
2022-09-17T12:51:49.898Z,4.55
2022-09-17T12:55:00.187Z,4.38
2022-09-17T12:57:58.741Z,9.85
2022-09-17T13:00:54.805Z,4.00
2022-09-17T13:03:48.449Z,4.05
2022-09-17T13:06:59.253Z,5.22
2022-09-17T13:09:48.284Z,4.95
2022-09-17T13:12:46.561Z,6.13
2022-09-17T13:15:54.202Z,7.40
2022-09-17T13:19:15.098Z,6.05
2022-09-17T13:22:07.613Z,5.00
2022-09-17T13:25:07.945Z,4.20
2022-09-17T13:28:09.399Z,9.40
2022-09-17T13:31:01.727Z,7.50
2022-09-17T13:33:56.748Z,5.00
2022-09-17T13:36:50.306Z,9.10
2022-09-17T13:42:32.228Z,6.55
2022-09-17T13:45:23.950Z,7.57
2022-09-17T13:48:22.963Z,4.10
2022-09-17T13:51:40.682Z,4.95
2022-09-17T13:54:28.831Z,3.67
2022-09-17T13:57:19.734Z,4.97
2022-09-17T14:00:08.694Z,4.95
2022-09-17T14:03:35.242Z,6.13
2022-09-17T14:06:44.444Z,6.10
2022-09-17T14:09:39.307Z,4.47
2022-09-17T14:12:45.133Z,4.20
2022-09-17T14:15:39.943Z,7.78
2022-09-17T14:18:59.106Z,6.88
2022-09-17T14:21:47.689Z,4.82
2022-09-17T14:24:41.736Z,2.70
2022-09-17T14:27:56.405Z,2.22
2022-09-17T14:30:46.899Z,4.55
2022-09-17T14:33:36.782Z,4.00
2022-09-17T14:36:27.280Z,4.22
2022-09-17T14:39:23.517Z,4.53
2022-09-17T14:42:21.790Z,4.07
2022-09-17T14:45:20.276Z,4.25
2022-09-17T14:48:32.076Z,5.18
2022-09-17T14:51:25.742Z,5.90
2022-09-17T14:54:21.871Z,5.45
2022-09-17T14:57:24.354Z,6.18
2022-09-17T15:00:22.524Z,3.05
2022-09-17T15:03:23.629Z,3.80
2022-09-17T15:06:23.074Z,2.25
2022-09-17T15:09:20.434Z,2.78
2022-09-17T15:12:10.311Z,2.30
2022-09-17T15:15:00.208Z,1.48
2022-09-17T15:17:49.990Z,2.22
2022-09-17T15:20:38.638Z,3.38
2022-09-17T15:23:30.368Z,3.03
2022-09-17T15:26:26.700Z,2.90
2022-09-17T15:29:16.178Z,0.95
2022-09-17T15:32:07.292Z,3.47
2022-09-17T15:35:19.071Z,2.25
2022-09-17T15:38:23.986Z,1.63
2022-09-17T15:41:26.092Z,3.15
2022-09-17T15:44:30.346Z,2.75
2022-09-17T15:47:39.349Z,5.13
2022-09-17T15:50:27.685Z,4.65
2022-09-17T15:53:24.027Z,1.67
2022-09-17T15:56:18.933Z,1.17
2022-09-17T15:59:29.285Z,3.55
2022-09-17T16:02:29.538Z,2.85
2022-09-17T16:05:47.655Z,3.00
2022-09-17T16:08:35.805Z,2.10
2022-09-17T16:11:26.498Z,4.28
2022-09-17T16:14:16.379Z,1.50
2022-09-17T16:17:33.265Z,1.92
2022-09-17T16:20:24.108Z,1.13
2022-09-17T16:23:12.532Z,4.32
2022-09-17T16:26:01.000Z,4.45
2022-09-17T16:28:52.742Z,3.28
2022-09-17T16:31:42.571Z,2.25
2022-09-17T16:34:30.965Z,1.50
2022-09-17T16:37:19.007Z,1.98
2022-09-17T16:40:08.701Z,1.75
2022-09-17T16:42:57.640Z,1.58
2022-09-17T16:45:59.604Z,2.95
2022-09-17T16:48:52.666Z,1.52
2022-09-17T16:51:40.807Z,0.80
2022-09-17T16:54:29.466Z,3.95
2022-09-17T16:57:18.216Z,1.98
2022-09-17T17:00:09.129Z,1.77
2022-09-17T17:02:59.065Z,2.78
2022-09-17T17:05:48.991Z,2.75
2022-09-17T17:08:37.538Z,1.45
2022-09-17T17:11:26.103Z,1.85
2022-09-17T17:14:14.997Z,3.55
2022-09-17T17:17:04.337Z,1.80
2022-09-17T17:19:53.492Z,4.95
2022-09-17T17:22:43.984Z,1.17
2022-09-17T17:25:33.779Z,5.65
2022-09-17T17:28:22.525Z,2.40
2022-09-17T17:31:12.276Z,2.38
2022-09-17T17:34:00.667Z,5.00
2022-09-17T17:36:51.255Z,2.83
2022-09-17T17:39:41.134Z,2.88
2022-09-17T17:42:36.355Z,3.13
2022-09-17T17:45:25.211Z,2.03
2022-09-17T17:48:13.265Z,3.75
2022-09-17T17:51:05.775Z,1.42
2022-09-17T17:53:54.547Z,2.35
2022-09-17T17:56:44.528Z,2.03
2022-09-17T17:59:32.684Z,2.33
2022-09-17T18:02:21.449Z,1.85
2022-09-17T18:05:12.130Z,1.75
2022-09-17T18:08:00.582Z,1.15
2022-09-17T18:10:55.180Z,1.42
2022-09-17T18:13:46.089Z,4.10
2022-09-17T18:16:34.780Z,2.42
2022-09-17T18:19:23.499Z,2.92
2022-09-17T18:22:12.243Z,2.75
2022-09-17T18:25:00.996Z,2.83
2022-09-17T18:27:49.637Z,1.67
2022-09-17T18:30:40.153Z,3.75
2022-09-17T18:33:29.141Z,2.63
2022-09-17T18:36:18.084Z,2.47
2022-09-17T18:39:52.822Z,2.47
2022-09-17T18:42:17.308Z,2.10
2022-09-17T18:45:05.965Z,4.15
2022-09-17T18:47:55.734Z,3.53
2022-09-17T18:50:44.084Z,2.67
2022-09-17T18:53:36.019Z,1.95
2022-09-17T18:56:25.995Z,2.67
2022-09-17T18:59:14.470Z,4.07
2022-09-17T19:02:02.973Z,2.25
2022-09-17T19:04:52.777Z,4.15
2022-09-17T19:07:45.227Z,3.70
2022-09-17T19:10:34.497Z,3.03
2022-09-17T19:13:23.357Z,2.92
2022-09-17T19:16:13.795Z,2.92
2022-09-17T19:19:02.855Z,2.58
2022-09-17T19:21:52.900Z,2.50
2022-09-17T19:24:42.063Z,2.08
2022-09-17T19:27:32.253Z,3.15
2022-09-17T19:30:20.606Z,2.15
2022-09-17T19:33:08.960Z,3.75
2022-09-17T19:36:02.214Z,2.35
2022-09-17T19:38:51.686Z,3.78
2022-09-17T19:41:40.135Z,6.57
2022-09-17T19:44:28.373Z,1.98
2022-09-17T19:47:17.237Z,2.75
2022-09-17T19:50:06.104Z,2.50
2022-09-17T19:52:54.962Z,2.13
2022-09-17T19:55:44.225Z,2.05
2022-09-17T19:58:32.703Z,2.45
2022-09-17T20:01:22.390Z,3.38
2022-09-17T20:04:10.796Z,3.10
2022-09-17T20:07:02.025Z,1.75
2022-09-17T20:09:51.256Z,2.50
2022-09-17T20:12:41.369Z,4.15
2022-09-17T20:15:29.600Z,2.97
2022-09-17T20:18:22.659Z,4.00
2022-09-17T20:21:13.589Z,6.95
2022-09-17T20:24:02.439Z,6.25
2022-09-17T20:26:51.526Z,5.43
2022-09-17T20:29:45.695Z,4.05
2022-09-17T20:32:34.138Z,5.32
2022-09-17T20:35:22.994Z,7.53
2022-09-17T20:41:20.734Z,5.32
2022-09-17T20:44:10.572Z,3.33
2022-09-17T20:47:02.412Z,5.07
2022-09-17T20:49:50.846Z,5.10
2022-09-17T20:52:38.795Z,5.32
2022-09-17T20:55:27.438Z,6.43
2022-09-17T20:58:17.517Z,4.15
2022-09-17T21:01:09.460Z,3.72
2022-09-17T21:03:59.990Z,7.13
2022-09-17T21:06:49.938Z,7.03
2022-09-17T21:09:43.102Z,9.98
2022-09-17T21:12:31.960Z,9.85
2022-09-17T21:15:20.627Z,6.95
2022-09-17T21:18:09.258Z,11.65
2022-09-17T21:21:02.322Z,12.00
2022-09-17T21:26:39.929Z,13.98
2022-09-17T21:29:28.697Z,6.82
2022-09-17T21:32:17.959Z,12.68
2022-09-17T21:35:06.711Z,10.60
2022-09-17T21:37:57.210Z,4.53
2022-09-17T21:40:47.402Z,6.20
2022-09-17T21:43:38.927Z,5.60
2022-09-17T21:46:31.619Z,4.00
2022-09-17T21:49:20.025Z,3.95
2022-09-17T21:52:09.184Z,2.15
2022-09-17T21:54:58.865Z,0.68
2022-09-17T21:57:47.221Z,3.53
2022-09-17T22:00:36.195Z,2.60
2022-09-17T22:03:24.707Z,2.30
2022-09-17T22:06:15.234Z,3.65
2022-09-17T22:09:05.616Z,3.28
2022-09-17T22:11:55.297Z,4.95
2022-09-17T22:14:43.408Z,6.47
2022-09-17T22:17:32.015Z,3.67
2022-09-17T22:20:21.979Z,1.48
2022-09-17T22:23:10.838Z,2.03
2022-09-17T22:26:09.027Z,1.98
2022-09-17T22:29:03.089Z,2.90
2022-09-17T22:31:51.539Z,1.95
2022-09-17T22:34:39.990Z,2.90
2022-09-17T22:37:31.311Z,4.75
2022-09-17T22:40:19.501Z,6.65
2022-09-17T22:43:08.000Z,11.63
2022-09-17T22:45:59.480Z,7.90
2022-09-17T22:48:49.302Z,8.45
2022-09-17T22:51:37.752Z,8.27
2022-09-17T22:54:27.861Z,10.98
2022-09-17T22:57:15.883Z,3.28
2022-09-17T23:00:04.749Z,3.45
2022-09-17T23:02:54.992Z,3.75
2022-09-17T23:05:45.843Z,3.60
2022-09-17T23:08:35.315Z,6.72
2022-09-17T23:11:27.117Z,4.60
2022-09-17T23:14:19.988Z,4.68
2022-09-17T23:17:08.847Z,9.77
2022-09-17T23:19:59.039Z,4.25
2022-09-17T23:22:47.698Z,6.22
2022-09-17T23:25:36.448Z,10.73
2022-09-17T23:28:24.996Z,11.70
2022-09-17T23:31:16.132Z,5.50
2022-09-17T23:34:07.752Z,3.25
2022-09-17T23:36:57.627Z,4.55
2022-09-17T23:39:48.127Z,6.30
2022-09-17T23:42:38.688Z,6.40
2022-09-17T23:45:31.869Z,7.25
2022-09-17T23:48:20.386Z,7.47
2022-09-17T23:51:11.561Z,8.52
2022-09-17T23:54:07.671Z,4.22
2022-09-17T23:56:56.731Z,6.45
2022-09-17T23:59:45.701Z,7.10
